Time;durP1;ratioP1;P1;durP2;ratioP2;P2;SDS_P1;SDS_P2;PMS_P1;PMS_P2;Temp;Humidity;BMP_temperature;BMP_pressure;BME280_temperature;BME280_humidity;BME280_pressure;Samples;Min_cycle;Max_cycle;Signal;HPM_P1;HPM_P2
2022/11/25 00:00:04;;;;;;;;;;;;;;;5.00;77.08;100638.63;4864072;29;4923;-77
2022/11/25 00:02:30;;;;;;;;;;;;;;;4.97;77.15;100636.31;4854631;29;4824;-78
2022/11/25 00:04:57;;;;;;;;;;;;;;;4.99;77.14;100628.94;4865623;29;4992;-76
2022/11/25 00:07:23;;;;;;;;;;;;;;;4.98;77.11;100635.28;4871785;29;4535;-78
2022/11/25 00:09:50;;;;;;;;;;;;;;;5.10;76.57;100624.19;4860142;29;4429;-78
2022/11/25 00:12:16;;;;;;;;;;;;;;;5.09;76.61;100633.19;4869398;29;3180;-78
2022/11/25 00:14:43;;;;;;;;;;;;;;;4.97;77.15;100635.47;4879965;29;4918;-78
2022/11/25 00:17:09;;;;;;;;;;;;;;;4.99;77.08;100634.28;4872158;29;4828;-78
2022/11/25 00:19:36;;;;;;;;;;;;;;;5.05;76.87;100646.06;4868721;29;4502;-78
2022/11/25 00:22:02;;;;;;;;;;;;;;;4.96;77.14;100642.63;4868914;29;4533;-78
2022/11/25 00:24:29;;;;;;;;;;;;;;;4.94;77.29;100649.16;4865193;29;4563;-76
2022/11/25 00:26:56;;;;;;;;;;;;;;;5.04;76.83;100651.59;4870016;29;4633;-77
2022/11/25 00:29:22;;;;;;;;;;;;;;;5.04;76.95;100648.94;4851537;29;5001;-77
2022/11/25 00:31:49;;;;;;;;;;;;;;;5.03;76.97;100652.59;4857687;29;4553;-79
2022/11/25 00:34:16;;;;;;;;;;;;;;;4.96;77.09;100644.47;4868151;29;4482;-79
2022/11/25 00:36:45;;;;;;;;;;;;;;;5.02;76.83;100638.41;4856073;29;4512;-79
2022/11/25 00:39:12;;;;;;;;;;;;;;;4.95;76.86;100643.66;4869287;29;4637;-77
2022/11/25 00:44:35;;;;;;;;;;;;;;;4.99;76.57;100647.63;4869891;29;4623;-79
2022/11/25 00:47:02;;;;;;;;;;;;;;;4.98;76.98;100650.47;4865835;29;4453;-78
2022/11/25 00:49:28;;;;;;;;;;;;;;;4.94;77.08;100646.50;4867370;29;4550;-79
2022/11/25 00:51:55;;;;;;;;;;;;;;;4.95;77.15;100645.50;4856343;29;4475;-79
2022/11/25 00:54:21;;;;;;;;;;;;;;;4.93;77.30;100640.34;4850811;29;4481;-77
2022/11/25 00:56:48;;;;;;;;;;;;;;;4.94;77.22;100647.34;4857748;29;5758;-77
2022/11/25 01:02:04;;;;;;;;;;;;;;;4.88;77.38;100637.41;4872702;29;4543;-78
2022/11/25 01:04:31;;;;;;;;;;;;;;;4.90;77.36;100635.34;4874211;29;5214;-80
2022/11/25 01:07:04;;;;;;;;;;;;;;;4.89;77.64;100635.56;4862755;29;5017;-78
2022/11/25 01:09:30;;;;;;;;;;;;;;;4.89;77.54;100635.56;4867699;29;4546;-80
2022/11/25 01:11:57;;;;;;;;;;;;;;;4.87;77.74;100633.06;4860657;29;4466;-81
2022/11/25 01:14:24;;;;;;;;;;;;;;;4.87;77.56;100640.22;4872970;29;4736;-78
2022/11/25 01:16:50;;;;;;;;;;;;;;;4.91;77.33;100637.03;4869139;29;4646;-79
2022/11/25 01:19:17;;;;;;;;;;;;;;;4.88;77.43;100640.06;4861353;29;4403;-79
2022/11/25 01:21:43;;;;;;;;;;;;;;;4.88;77.39;100644.56;4872367;29;4952;-80
2022/11/25 01:24:10;;;;;;;;;;;;;;;4.87;77.46;100641.06;4873330;29;4518;-79
2022/11/25 01:26:37;;;;;;;;;;;;;;;4.90;77.29;100643.38;4871301;29;4507;-80
2022/11/25 01:29:03;;;;;;;;;;;;;;;4.88;77.42;100648.06;4856785;29;4647;-79
2022/11/25 01:31:30;;;;;;;;;;;;;;;4.88;77.54;100650.75;4869017;29;4346;-79
2022/11/25 01:33:57;;;;;;;;;;;;;;;4.86;77.37;100646.59;4855771;29;4605;-80
2022/11/25 01:36:23;;;;;;;;;;;;;;;4.84;77.56;100645.94;4858075;29;4368;-79
2022/11/25 01:38:50;;;;;;;;;;;;;;;4.84;77.54;100652.09;4868295;29;4455;-79
2022/11/25 01:41:16;;;;;;;;;;;;;;;4.86;77.61;100658.09;4870755;29;4403;-79
2022/11/25 01:43:43;;;;;;;;;;;;;;;4.87;77.58;100664.25;4869109;29;4797;-79
2022/11/25 01:46:09;;;;;;;;;;;;;;;4.87;77.41;100670.41;4866965;29;4648;-79
2022/11/25 01:51:27;;;;;;;;;;;;;;;4.84;77.74;100677.97;4867905;29;4614;-79
2022/11/25 01:53:54;;;;;;;;;;;;;;;4.83;77.62;100674.47;4873409;29;4553;-77
2022/11/25 01:56:21;;;;;;;;;;;;;;;4.85;77.46;100668.94;4867939;29;4572;-79
2022/11/25 01:58:48;;;;;;;;;;;;;;;4.84;77.62;100664.63;4856704;29;4464;-80
2022/11/25 02:01:15;;;;;;;;;;;;;;;4.84;77.52;100669.94;4853764;29;4684;-79
2022/11/25 02:03:42;;;;;;;;;;;;;;;4.83;77.56;100668.31;4871525;29;4437;-79
2022/11/25 02:06:09;;;;;;;;;;;;;;;4.85;77.56;100669.75;4868079;29;4374;-78
2022/11/25 02:08:36;;;;;;;;;;;;;;;4.83;77.50;100668.31;4856283;29;4671;-78
2022/11/25 02:11:03;;;;;;;;;;;;;;;4.85;77.52;100674.25;4860516;29;4569;-78
2022/11/25 02:13:30;;;;;;;;;;;;;;;4.84;77.52;100673.44;4874557;29;4779;-79
2022/11/25 02:15:57;;;;;;;;;;;;;;;4.84;77.51;100665.44;4869962;29;4583;-80
2022/11/25 02:18:24;;;;;;;;;;;;;;;4.85;77.62;100667.09;4861068;29;4662;-79
2022/11/25 02:20:50;;;;;;;;;;;;;;;4.84;77.46;100670.78;4869219;29;4542;-79
2022/11/25 02:23:17;;;;;;;;;;;;;;;4.86;77.52;100670.59;4871699;29;4396;-79
2022/11/25 02:25:44;;;;;;;;;;;;;;;4.87;77.50;100675.75;4868871;29;4763;-79
2022/11/25 02:28:11;;;;;;;;;;;;;;;4.86;77.65;100673.28;4869605;29;4500;-81
2022/11/25 02:30:38;;;;;;;;;;;;;;;4.88;77.46;100676.56;4868068;29;4546;-79
2022/11/25 02:33:05;;;;;;;;;;;;;;;4.86;77.29;100678.63;4872485;29;4555;-79
2022/11/25 02:35:32;;;;;;;;;;;;;;;4.87;77.44;100677.59;4859716;29;4716;-79
2022/11/25 02:37:58;;;;;;;;;;;;;;;4.85;77.47;100683.09;4870861;29;4811;-80
2022/11/25 02:40:25;;;;;;;;;;;;;;;4.88;77.44;100680.09;4863941;29;4598;-80
2022/11/25 02:42:51;;;;;;;;;;;;;;;4.86;77.44;100670.59;4860306;29;4645;-79
2022/11/25 02:45:18;;;;;;;;;;;;;;;4.87;77.39;100674.94;4856475;29;4926;-79
2022/11/25 02:47:44;;;;;;;;;;;;;;;4.87;77.34;100681.09;4857179;29;4691;-80
2022/11/25 02:50:12;;;;;;;;;;;;;;;4.90;77.34;100677.25;4873856;29;4514;-81
2022/11/25 02:52:39;;;;;;;;;;;;;;;4.91;77.36;100685.06;4873302;29;4579;-80
2022/11/25 02:55:05;;;;;;;;;;;;;;;4.97;77.13;100680.84;4859391;29;4522;-80
2022/11/25 02:57:32;;;;;;;;;;;;;;;4.97;77.04;100679.03;4871872;29;4487;-79
2022/11/25 02:59:58;;;;;;;;;;;;;;;4.95;77.12;100678.34;4872682;29;4599;-80
2022/11/25 03:02:25;;;;;;;;;;;;;;;4.96;77.15;100671.19;4869280;29;4487;-80
2022/11/25 03:04:51;;;;;;;;;;;;;;;5.04;76.85;100676.44;4873255;29;4477;-80
2022/11/25 03:07:18;;;;;;;;;;;;;;;5.06;76.77;100674.44;4873146;29;4612;-79
2022/11/25 03:09:45;;;;;;;;;;;;;;;5.04;76.79;100686.31;4858715;29;4907;-80
2022/11/25 03:12:21;;;;;;;;;;;;;;;5.01;77.12;100690.16;4871289;29;4575;-80
2022/11/25 03:14:48;;;;;;;;;;;;;;;5.00;77.04;100691.19;4873255;29;4581;-79
2022/11/25 03:17:14;;;;;;;;;;;;;;;5.05;76.79;100690.63;4872361;29;4575;-79
2022/11/25 03:19:41;;;;;;;;;;;;;;;5.28;76.19;100695.94;4859894;29;4449;-78
2022/11/25 03:22:07;;;;;;;;;;;;;;;5.24;76.34;100693.63;4858634;29;4436;-79
2022/11/25 03:24:34;;;;;;;;;;;;;;;5.39;75.78;100706.19;4875040;29;4600;-79
2022/11/25 03:27:00;;;;;;;;;;;;;;;5.38;75.70;100705.34;4874196;29;4434;-80
2022/11/25 03:29:27;;;;;;;;;;;;;;;5.30;75.74;100705.41;4870088;29;4473;-80
2022/11/25 03:31:53;;;;;;;;;;;;;;;5.28;75.98;100696.75;4857915;29;4727;-79
2022/11/25 03:34:20;;;;;;;;;;;;;;;5.20;76.27;100696.81;4874465;29;4739;-78
2022/11/25 03:36:46;;;;;;;;;;;;;;;5.29;75.98;100695.72;4856684;29;4555;-81
2022/11/25 03:39:13;;;;;;;;;;;;;;;5.37;75.66;100697.50;4873732;29;5116;-78
2022/11/25 03:41:40;;;;;;;;;;;;;;;5.34;75.67;100704.03;4873584;29;4562;-81
2022/11/25 03:44:06;;;;;;;;;;;;;;;5.32;75.80;100706.06;4875784;29;4407;-82
2022/11/25 03:46:33;;;;;;;;;;;;;;;5.38;75.71;100705.34;4867138;29;4371;-80
2022/11/25 03:48:59;;;;;;;;;;;;;;;5.51;75.02;100711.91;4854940;29;4767;-81
2022/11/25 03:51:26;;;;;;;;;;;;;;;5.42;75.44;100706.63;4870154;29;4543;-80
2022/11/25 03:53:52;;;;;;;;;;;;;;;5.28;75.94;100702.09;4857444;29;4881;-79
2022/11/25 03:56:19;;;;;;;;;;;;;;;5.49;75.39;100703.22;4872986;29;4468;-80
2022/11/25 03:58:46;;;;;;;;;;;;;;;5.43;75.43;100710.13;4854948;29;4515;-80
2022/11/25 04:01:12;;;;;;;;;;;;;;;5.61;75.08;100709.78;4860028;29;4579;-81
2022/11/25 04:03:39;;;;;;;;;;;;;;;5.53;75.34;100707.19;4872666;29;4723;-81
2022/11/25 04:06:05;;;;;;;;;;;;;;;5.50;74.81;100705.75;4871846;29;4470;-80
2022/11/25 04:08:32;;;;;;;;;;;;;;;5.63;74.96;100703.25;4873729;29;4610;-80
2022/11/25 04:10:58;;;;;;;;;;;;;;;5.61;74.74;100707.09;4848560;29;4574;-80
2022/11/25 04:13:28;;;;;;;;;;;;;;;5.59;74.85;100709.13;4861601;29;4377;-79
2022/11/25 04:15:55;;;;;;;;;;;;;;;5.57;75.00;100713.84;4859781;29;4522;-81
2022/11/25 04:18:21;;;;;;;;;;;;;;;5.59;75.06;100712.66;4856123;29;4548;-79
2022/11/25 04:20:48;;;;;;;;;;;;;;;5.53;75.06;100716.06;4869591;29;4706;-80
2022/11/25 04:23:14;;;;;;;;;;;;;;;5.68;74.52;100721.41;4872007;29;4939;-79
2022/11/25 04:25:41;;;;;;;;;;;;;;;5.59;74.57;100711.78;4872808;29;4483;-80
2022/11/25 04:28:07;;;;;;;;;;;;;;;5.56;75.36;100717.50;4857721;29;4549;-80
2022/11/25 04:30:34;;;;;;;;;;;;;;;5.59;74.97;100726.00;4869325;29;4421;-80
2022/11/25 04:33:01;;;;;;;;;;;;;;;5.67;74.57;100720.56;4871216;29;4735;-80
2022/11/25 04:35:27;;;;;;;;;;;;;;;5.57;75.17;100721.84;4870750;29;4477;-80
2022/11/25 04:37:54;;;;;;;;;;;;;;;5.64;75.06;100728.13;4856092;29;4672;-81
2022/11/25 04:40:20;;;;;;;;;;;;;;;5.72;74.47;100725.38;4851269;29;4449;-79
2022/11/25 04:42:47;;;;;;;;;;;;;;;5.81;74.13;100724.25;4871282;29;4606;-80
2022/11/25 04:45:14;;;;;;;;;;;;;;;5.75;74.33;100727.66;4856927;29;4588;-80
2022/11/25 04:47:40;;;;;;;;;;;;;;;5.63;74.86;100729.97;4870666;29;4708;-80
2022/11/25 04:50:07;;;;;;;;;;;;;;;5.72;74.71;100730.72;4870621;29;4524;-78
2022/11/25 04:52:34;;;;;;;;;;;;;;;5.59;75.03;100738.50;4871164;29;4529;-81
2022/11/25 04:55:00;;;;;;;;;;;;;;;5.61;75.00;100736.50;4873297;29;4387;-80
2022/11/25 04:57:27;;;;;;;;;;;;;;;5.70;74.74;100733.56;4867680;29;4540;-81
2022/11/25 04:59:52;;;;;;;;;;;;;;;5.70;74.92;100740.75;4869193;29;4632;-78
2022/11/25 05:02:19;;;;;;;;;;;;;;;5.68;74.74;100740.94;4872657;29;4670;-80
2022/11/25 05:04:45;;;;;;;;;;;;;;;5.57;75.03;100741.38;4872997;29;5103;-81
2022/11/25 05:07:12;;;;;;;;;;;;;;;5.66;74.87;100736.78;4873214;29;4430;-79
2022/11/25 05:09:38;;;;;;;;;;;;;;;5.69;74.63;100728.41;4855295;29;4503;-80
2022/11/25 05:12:05;;;;;;;;;;;;;;;5.63;74.98;100724.63;4869500;29;4458;-81
2022/11/25 05:14:34;;;;;;;;;;;;;;;5.23;74.98;100664.41;4871776;29;4609;-79
2022/11/25 05:17:00;;;;;;;;;;;;;;;5.59;75.16;100728.69;4869832;29;4563;-81
2022/11/25 05:19:27;;;;;;;;;;;;;;;5.58;75.24;100736.88;4858696;29;4735;-79
2022/11/25 05:21:54;;;;;;;;;;;;;;;5.71;74.90;100731.72;4859375;29;4439;-81
2022/11/25 05:24:20;;;;;;;;;;;;;;;5.67;74.64;100741.09;4879853;29;4251;-79
2022/11/25 05:26:47;;;;;;;;;;;;;;;5.59;75.43;100738.50;4867146;29;4412;-79
2022/11/25 05:29:13;;;;;;;;;;;;;;;5.75;74.41;100733.00;4859787;29;4990;-79
2022/11/25 05:31:40;;;;;;;;;;;;;;;5.74;74.75;100736.72;4866140;29;4545;-80
2022/11/25 05:34:06;;;;;;;;;;;;;;;5.67;75.07;100738.44;4855441;29;4457;-79
2022/11/25 05:36:33;;;;;;;;;;;;;;;5.66;74.88;100739.47;4870674;29;4399;-80
2022/11/25 05:38:59;;;;;;;;;;;;;;;5.61;75.30;100729.31;4861132;29;4578;-80
2022/11/25 05:41:26;;;;;;;;;;;;;;;5.68;74.96;100724.09;4867561;29;4510;-80
2022/11/25 05:43:52;;;;;;;;;;;;;;;5.65;75.15;100729.78;4859791;29;4476;-80
2022/11/25 05:46:19;;;;;;;;;;;;;;;5.68;75.11;100732.94;4868431;29;4603;-80
2022/11/25 05:48:45;;;;;;;;;;;;;;;5.72;74.78;100737.91;4872197;29;4669;-80
2022/11/25 05:51:12;;;;;;;;;;;;;;;5.64;75.00;100741.47;4870956;29;4639;-80
2022/11/25 05:53:38;;;;;;;;;;;;;;;5.60;75.35;100746.38;4870816;29;4498;-80
2022/11/25 05:56:05;;;;;;;;;;;;;;;5.66;75.19;100747.47;4857689;29;4455;-79
2022/11/25 05:58:31;;;;;;;;;;;;;;;5.65;75.20;100743.16;4871881;29;4554;-80
2022/11/25 06:00:58;;;;;;;;;;;;;;;5.77;74.52;100747.03;4862002;29;4800;-81
2022/11/25 06:03:25;;;;;;;;;;;;;;;5.75;74.67;100745.56;4867221;29;4702;-81
2022/11/25 06:05:51;;;;;;;;;;;;;;;5.67;75.17;100754.47;4867761;29;4645;-81
2022/11/25 06:08:18;;;;;;;;;;;;;;;5.69;75.08;100749.78;4870077;29;4593;-80
2022/11/25 06:10:44;;;;;;;;;;;;;;;5.67;75.01;100755.28;4862211;29;5231;-82
2022/11/25 06:13:11;;;;;;;;;;;;;;;5.60;75.42;100746.38;4857568;29;4845;-79
2022/11/25 06:15:37;;;;;;;;;;;;;;;5.59;75.36;100747.38;4865533;29;4549;-79
2022/11/25 06:18:04;;;;;;;;;;;;;;;5.62;75.14;100755.03;4874822;29;4314;-79
2022/11/25 06:20:30;;;;;;;;;;;;;;;5.65;75.36;100757.34;4873148;29;4744;-79
2022/11/25 06:22:57;;;;;;;;;;;;;;;5.61;75.28;100764.03;4872269;29;4657;-80
2022/11/25 06:25:23;;;;;;;;;;;;;;;5.59;75.39;100765.22;4871304;29;4364;-80
2022/11/25 06:27:50;;;;;;;;;;;;;;;5.52;75.44;100764.31;4866320;29;5219;-80
2022/11/25 06:30:17;;;;;;;;;;;;;;;5.67;75.01;100770.50;4866236;29;4440;-80
2022/11/25 06:32:43;;;;;;;;;;;;;;;5.68;75.07;100767.66;4874477;29;5136;-80
2022/11/25 06:35:10;;;;;;;;;;;;;;;5.63;75.27;100763.88;4873420;29;4662;-81
2022/11/25 06:37:36;;;;;;;;;;;;;;;5.56;75.44;100762.94;4874283;29;4788;-82
2022/11/25 06:40:03;;;;;;;;;;;;;;;5.59;75.41;100767.91;4864343;29;4677;-78
2022/11/25 06:42:29;;;;;;;;;;;;;;;5.60;75.39;100766.91;4873808;29;4756;-80
2022/11/25 06:44:56;;;;;;;;;;;;;;;5.53;75.55;100771.31;4873878;29;4657;-80
2022/11/25 06:47:22;;;;;;;;;;;;;;;5.51;75.59;100774.19;4870063;29;4533;-81
2022/11/25 06:49:49;;;;;;;;;;;;;;;5.56;75.60;100773.63;4868964;29;4627;-80
2022/11/25 06:52:16;;;;;;;;;;;;;;;5.63;75.42;100764.69;4855959;29;4669;-82
2022/11/25 06:54:42;;;;;;;;;;;;;;;5.51;75.60;100766.16;4880676;29;4842;-79
2022/11/25 06:57:09;;;;;;;;;;;;;;;5.64;75.19;100771.69;4885478;29;4059;-79
2022/11/25 06:59:36;;;;;;;;;;;;;;;5.65;75.29;100765.34;4886027;29;4550;-80
2022/11/25 07:02:02;;;;;;;;;;;;;;;5.56;75.51;100776.28;4882597;29;4370;-80
2022/11/25 07:04:29;;;;;;;;;;;;;;;5.63;75.06;100779.91;4883504;29;4225;-80
2022/11/25 07:06:55;;;;;;;;;;;;;;;5.62;75.28;100795.13;4881158;29;5125;-79
2022/11/25 07:09:23;;;;;;;;;;;;;;;5.59;75.33;100792.81;4880986;29;4579;-81
2022/11/25 07:11:50;;;;;;;;;;;;;;;5.60;75.36;100790.97;4885021;29;4362;-79
2022/11/25 07:14:16;;;;;;;;;;;;;;;5.54;75.52;100813.88;4879288;29;4495;-80
2022/11/25 07:16:43;;;;;;;;;;;;;;;5.54;75.52;100805.88;4862947;29;4775;-80
2022/11/25 07:19:09;;;;;;;;;;;;;;;5.53;75.85;100806.03;4877822;29;4076;-81
2022/11/25 07:21:36;;;;;;;;;;;;;;;5.61;75.47;100803.31;4884175;29;4460;-80
2022/11/25 07:24:03;;;;;;;;;;;;;;;5.43;75.93;100820.47;4884014;29;4427;-80
2022/11/25 07:26:29;;;;;;;;;;;;;;;5.46;75.92;100806.75;4883875;29;4586;-80
2022/11/25 07:28:56;;;;;;;;;;;;;;;5.50;75.99;100806.41;4880867;29;4572;-81
2022/11/25 07:31:22;;;;;;;;;;;;;;;5.63;75.33;100815.47;4881030;29;4537;-81
2022/11/25 07:33:49;;;;;;;;;;;;;;;5.58;75.35;100811.69;4869744;29;4218;-81
2022/11/25 07:36:15;;;;;;;;;;;;;;;5.47;75.87;100815.59;4882076;29;4302;-81
2022/11/25 07:38:42;;;;;;;;;;;;;;;5.58;75.41;100830.38;4882710;29;4353;-80
2022/11/25 07:41:09;;;;;;;;;;;;;;;5.63;75.61;100830.69;4879353;29;4493;-82
2022/11/25 07:43:35;;;;;;;;;;;;;;;5.51;75.75;100830.28;4883526;29;4715;-80
2022/11/25 07:46:02;;;;;;;;;;;;;;;5.54;75.48;100832.59;4881347;29;4549;-80
2022/11/25 07:48:29;;;;;;;;;;;;;;;5.56;75.82;100843.09;4880089;29;4711;-80
2022/11/25 07:50:55;;;;;;;;;;;;;;;5.57;75.57;100842.09;4880158;29;4471;-80
2022/11/25 07:53:22;;;;;;;;;;;;;;;5.49;75.92;100847.50;4884574;29;4596;-81
2022/11/25 07:55:48;;;;;;;;;;;;;;;5.56;75.50;100843.94;4882234;29;4466;-81
2022/11/25 07:58:15;;;;;;;;;;;;;;;5.57;75.46;100842.91;4881758;29;4439;-81
2022/11/25 08:00:42;;;;;;;;;;;;;;;5.53;75.88;100848.78;4882987;29;4546;-81
2022/11/25 08:03:09;;;;;;;;;;;;;;;5.40;76.33;100850.22;4883351;29;4064;-81
2022/11/25 08:05:35;;;;;;;;;;;;;;;5.44;76.02;100846.22;4871833;29;4389;-81
2022/11/25 08:08:02;;;;;;;;;;;;;;;5.52;75.91;100853.31;4868508;29;4508;-81
2022/11/25 08:10:28;;;;;;;;;;;;;;;5.61;75.35;100852.22;4881629;29;4590;-80
2022/11/25 08:12:55;;;;;;;;;;;;;;;5.54;75.71;100847.81;4878041;29;4189;-80
2022/11/25 08:15:21;;;;;;;;;;;;;;;5.53;75.85;100843.44;4867005;29;4574;-81
2022/11/25 08:17:51;;;;;;;;;;;;;;;5.64;75.24;100854.53;4869869;29;4202;-81
2022/11/25 08:20:18;;;;;;;;;;;;;;;5.52;75.59;100853.31;4863353;29;4554;-80
2022/11/25 08:22:44;;;;;;;;;;;;;;;5.47;75.81;100851.19;4881949;29;4653;-80
2022/11/25 08:25:11;;;;;;;;;;;;;;;5.51;75.92;100854.31;4882503;29;4433;-81
2022/11/25 08:27:37;;;;;;;;;;;;;;;5.50;75.98;100860.69;4881840;29;3449;-81
2022/11/25 08:30:04;;;;;;;;;;;;;;;5.56;75.77;100853.78;4864113;29;4271;-81
2022/11/25 08:32:30;;;;;;;;;;;;;;;5.55;75.61;100865.47;4871124;29;4289;-80
2022/11/25 08:34:57;;;;;;;;;;;;;;;5.50;76.18;100873.19;4859968;29;4597;-81
2022/11/25 08:37:23;;;;;;;;;;;;;;;5.52;75.87;100860.50;4873491;29;4554;-82
2022/11/25 08:39:50;;;;;;;;;;;;;;;5.33;76.45;100857.31;4859544;29;4590;-80
2022/11/25 08:42:16;;;;;;;;;;;;;;;5.42;76.31;100856.22;4857702;29;4707;-82
2022/11/25 08:44:43;;;;;;;;;;;;;;;5.46;76.00;100857.53;4872952;29;4678;-81
2022/11/25 08:47:10;;;;;;;;;;;;;;;5.47;76.05;100864.53;4879329;29;4612;-80
2022/11/25 08:49:36;;;;;;;;;;;;;;;5.37;76.29;100865.78;4879460;29;4452;-80
2022/11/25 08:52:02;;;;;;;;;;;;;;;5.42;76.38;100868.75;4873815;29;4854;-82
2022/11/25 08:54:29;;;;;;;;;;;;;;;5.41;76.33;100870.59;4872140;29;5041;-80
2022/11/25 08:56:56;;;;;;;;;;;;;;;5.40;76.30;100876.13;4862702;29;4263;-80
2022/11/25 08:59:24;;;;;;;;;;;;;;;5.43;75.89;100881.91;4880390;29;4356;-81
2022/11/25 09:01:50;;;;;;;;;;;;;;;5.44;76.22;100880.06;4878504;29;4488;-82
2022/11/25 09:04:17;;;;;;;;;;;;;;;5.45;76.14;100881.75;4872777;29;4871;-81
2022/11/25 09:06:43;;;;;;;;;;;;;;;5.42;76.32;100882.13;4862646;29;4549;-80
2022/11/25 09:09:10;;;;;;;;;;;;;;;5.33;76.45;100880.50;4873502;29;5307;-81
2022/11/25 09:11:37;;;;;;;;;;;;;;;5.37;76.35;100879.13;4872577;29;4663;-81
2022/11/25 09:14:03;;;;;;;;;;;;;;;5.31;76.73;100885.19;4871750;29;4533;-81
2022/11/25 09:16:30;;;;;;;;;;;;;;;5.40;76.31;100884.13;4872768;29;4700;-80
2022/11/25 09:18:58;;;;;;;;;;;;;;;5.35;76.49;100878.47;4861141;29;4842;-81
2022/11/25 09:21:25;;;;;;;;;;;;;;;5.33;76.52;100888.53;4859399;29;4540;-79
2022/11/25 09:23:52;;;;;;;;;;;;;;;5.41;76.12;100886.63;4878119;29;4525;-79
2022/11/25 09:26:19;;;;;;;;;;;;;;;5.34;76.56;100887.50;4874941;29;4898;-80
2022/11/25 09:28:46;;;;;;;;;;;;;;;5.34;76.62;100892.84;4873520;29;4547;-80
2022/11/25 09:31:12;;;;;;;;;;;;;;;5.43;76.22;100892.59;4857030;29;4589;-79
2022/11/25 09:33:38;;;;;;;;;;;;;;;5.40;76.36;100886.78;4856802;29;4534;-81
2022/11/25 09:36:06;;;;;;;;;;;;;;;5.36;76.42;100894.34;4860942;29;4679;-81
2022/11/25 09:38:32;;;;;;;;;;;;;;;5.39;76.16;100888.66;4873272;29;4664;-80
2022/11/25 09:40:59;;;;;;;;;;;;;;;5.38;76.43;100892.34;4872376;29;4515;-81
2022/11/25 09:48:59;;;;;;;;;;;;;;;5.25;76.86;100905.41;4858514;29;4713;-81
2022/11/25 09:51:26;;;;;;;;;;;;;;;5.34;76.40;100896.34;4875825;29;4678;-80
2022/11/25 09:53:53;;;;;;;;;;;;;;;5.41;76.35;100899.13;4863965;29;4684;-81
2022/11/25 09:56:20;;;;;;;;;;;;;;;5.39;76.33;100904.66;4878975;29;4510;-81
2022/11/25 09:58:47;;;;;;;;;;;;;;;5.30;76.60;100900.38;4876706;29;4620;-81
2022/11/25 10:01:13;;;;;;;;;;;;;;;5.31;76.72;100899.38;4877585;29;4620;-81
2022/11/25 10:03:40;;;;;;;;;;;;;;;5.31;76.69;100899.38;4877088;29;4664;-81
2022/11/25 10:06:06;;;;;;;;;;;;;;;5.41;76.56;100912.50;4864194;29;4616;-81
2022/11/25 10:08:33;;;;;;;;;;;;;;;5.37;76.37;100912.03;4876975;29;4531;-81
2022/11/25 10:11:00;;;;;;;;;;;;;;;5.31;76.63;100917.25;4861648;29;4738;-80
2022/11/25 10:13:26;;;;;;;;;;;;;;;5.33;76.62;100920.59;4875994;29;4609;-81
2022/11/25 10:15:53;;;;;;;;;;;;;;;5.42;76.19;100922.19;4864879;29;5093;-80
2022/11/25 10:18:19;;;;;;;;;;;;;;;5.44;76.23;100917.47;4860965;29;4674;-79
2022/11/25 10:20:46;;;;;;;;;;;;;;;5.39;76.24;100920.69;4875759;29;4603;-82
2022/11/25 10:23:13;;;;;;;;;;;;;;;5.39;76.33;100933.22;4874970;29;4533;-81
2022/11/25 10:25:40;;;;;;;;;;;;;;;5.44;75.93;100926.34;4877424;29;4555;-80
2022/11/25 10:28:06;;;;;;;;;;;;;;;5.36;76.30;100934.41;4874863;29;4730;-80
2022/11/25 10:30:33;;;;;;;;;;;;;;;5.44;76.27;100928.16;4862890;29;4543;-80
2022/11/25 10:32:59;;;;;;;;;;;;;;;5.37;76.50;100938.72;4861861;29;4687;-81
2022/11/25 10:35:26;;;;;;;;;;;;;;;5.37;76.57;100940.56;4875303;29;5111;-82
2022/11/25 10:37:54;;;;;;;;;;;;;;;5.24;76.83;100928.63;4865711;29;4564;-82
2022/11/25 10:40:20;;;;;;;;;;;;;;;5.25;76.82;100932.13;4861625;29;4665;-81
2022/11/25 10:42:47;;;;;;;;;;;;;;;5.29;76.62;100935.28;4877249;29;4580;-81
2022/11/25 10:45:13;;;;;;;;;;;;;;;5.39;76.33;100936.72;4877057;29;4602;-81
2022/11/25 10:47:40;;;;;;;;;;;;;;;5.32;76.52;100941.09;4875496;29;4544;-81
2022/11/25 10:50:06;;;;;;;;;;;;;;;5.34;76.56;100932.91;4865235;29;4586;-82
2022/11/25 10:52:33;;;;;;;;;;;;;;;5.40;76.38;100932.22;4862665;29;4548;-81
2022/11/25 10:54:59;;;;;;;;;;;;;;;5.29;76.59;100932.59;4861452;29;4633;-81
2022/11/25 10:57:26;;;;;;;;;;;;;;;5.23;76.77;100937.66;4877995;29;4517;-82
2022/11/25 10:59:52;;;;;;;;;;;;;;;5.34;76.66;100944.44;4861649;29;4570;-82
2022/11/25 11:02:19;;;;;;;;;;;;;;;5.49;76.25;100933.81;4874030;29;4753;-81
2022/11/25 11:04:46;;;;;;;;;;;;;;;5.39;76.31;100949.25;4877410;29;4560;-82
2022/11/25 11:07:12;;;;;;;;;;;;;;;5.41;76.43;100947.22;4860670;29;4571;-81
2022/11/25 11:09:39;;;;;;;;;;;;;;;5.34;76.37;100943.59;4860877;29;4511;-81
2022/11/25 11:12:06;;;;;;;;;;;;;;;5.27;76.79;100951.50;4873862;29;4854;-82
2022/11/25 11:14:33;;;;;;;;;;;;;;;5.35;76.49;100939.91;4863078;29;4651;-83
2022/11/25 11:16:59;;;;;;;;;;;;;;;5.33;76.63;100948.13;4874111;29;4609;-80
2022/11/25 11:19:26;;;;;;;;;;;;;;;5.31;76.78;100954.63;4876781;29;4737;-80
2022/11/25 11:21:52;;;;;;;;;;;;;;;5.35;76.62;100959.44;4875292;29;4546;-81
2022/11/25 11:24:19;;;;;;;;;;;;;;;5.33;76.41;100956.13;4878085;29;4635;-80
2022/11/25 11:26:45;;;;;;;;;;;;;;;5.43;76.28;100953.22;4859327;29;4557;-80
2022/11/25 11:29:12;;;;;;;;;;;;;;;5.44;76.03;100950.41;4858279;29;4616;-84
2022/11/25 11:31:39;;;;;;;;;;;;;;;5.36;76.52;100946.94;4874250;29;4589;-82
2022/11/25 11:34:05;;;;;;;;;;;;;;;5.46;76.21;100950.19;4876604;29;4951;-81
2022/11/25 11:36:31;;;;;;;;;;;;;;;5.28;76.82;100950.47;4863601;29;4750;-81
2022/11/25 11:38:58;;;;;;;;;;;;;;;5.27;76.72;100951.50;4873352;29;4379;-80
2022/11/25 11:41:24;;;;;;;;;;;;;;;5.34;76.61;100948.94;4857286;29;4670;-81
2022/11/25 11:43:53;;;;;;;;;;;;;;;5.28;76.80;100946.97;4864146;29;4613;-82
2022/11/25 11:46:19;;;;;;;;;;;;;;;5.34;76.59;100946.28;4874246;29;4585;-82
2022/11/25 11:48:46;;;;;;;;;;;;;;;5.39;76.54;100950.06;4875353;29;4662;-82
2022/11/25 11:51:12;;;;;;;;;;;;;;;5.28;76.83;100949.66;4876912;29;4645;-81
2022/11/25 11:53:39;;;;;;;;;;;;;;;5.21;76.91;100949.53;4876453;29;4795;-81
2022/11/25 11:56:05;;;;;;;;;;;;;;;5.24;76.98;100949.16;4874040;29;4650;-80
2022/11/25 11:58:32;;;;;;;;;;;;;;;5.39;76.55;100952.75;4876483;29;4600;-81
2022/11/25 12:00:58;;;;;;;;;;;;;;;5.42;76.27;100951.56;4875983;29;4548;-82
2022/11/25 12:03:25;;;;;;;;;;;;;;;5.30;76.79;100944.97;4865836;29;4609;-83
2022/11/25 12:05:54;;;;;;;;;;;;;;;5.31;76.46;100950.13;4875941;29;4742;-81
2022/11/25 12:08:21;;;;;;;;;;;;;;;5.23;76.77;100948.34;4860644;29;4661;-81
2022/11/25 12:10:47;;;;;;;;;;;;;;;5.29;76.91;100949.44;4859806;29;4797;-81
2022/11/25 12:13:14;;;;;;;;;;;;;;;5.31;76.45;100944.78;4862771;29;4398;-82
2022/11/25 12:15:40;;;;;;;;;;;;;;;5.33;76.64;100949.97;4873704;29;4536;-82
2022/11/25 12:18:07;;;;;;;;;;;;;;;5.30;76.64;100945.78;4861032;29;4703;-82
2022/11/25 12:20:33;;;;;;;;;;;;;;;5.28;76.76;100950.47;4874974;29;4695;-84
2022/11/25 12:23:00;;;;;;;;;;;;;;;5.36;76.73;100950.44;4874824;29;4639;-82
2022/11/25 12:25:27;;;;;;;;;;;;;;;5.34;76.58;100947.09;4876634;29;4738;-81
2022/11/25 12:27:54;;;;;;;;;;;;;;;5.27;76.79;100948.81;4871230;29;4643;-82
2022/11/25 12:30:20;;;;;;;;;;;;;;;5.33;76.67;100952.63;4863487;29;4642;-81
2022/11/25 12:32:47;;;;;;;;;;;;;;;5.34;76.47;100955.09;4862543;29;4698;-81
2022/11/25 12:35:14;;;;;;;;;;;;;;;5.33;76.50;100950.78;4877031;29;4529;-81
2022/11/25 12:37:41;;;;;;;;;;;;;;;5.20;76.99;100955.84;4875375;29;4609;-80
2022/11/25 12:40:07;;;;;;;;;;;;;;;5.20;76.96;100955.84;4859233;29;4616;-82
2022/11/25 12:42:34;;;;;;;;;;;;;;;5.28;76.75;100949.66;4857596;29;4574;-80
2022/11/25 12:45:00;;;;;;;;;;;;;;;5.32;76.82;100953.63;4876802;29;4556;-82
2022/11/25 12:47:27;;;;;;;;;;;;;;;5.23;76.85;100948.34;4874962;29;4785;-81
2022/11/25 12:49:53;;;;;;;;;;;;;;;5.18;77.19;100958.72;4861429;29;4832;-82
2022/11/25 12:52:20;;;;;;;;;;;;;;;5.21;77.09;100958.34;4876756;29;4652;-82
2022/11/25 12:54:47;;;;;;;;;;;;;;;5.28;76.73;100960.31;4875793;29;4579;-81
2022/11/25 12:57:15;;;;;;;;;;;;;;;5.23;76.99;100955.50;4877340;29;4597;-81
2022/11/25 12:59:42;;;;;;;;;;;;;;;5.34;76.39;100968.47;4875383;29;4582;-84
2022/11/25 13:02:12;;;;;;;;;;;;;;;5.29;76.75;100965.47;4868040;29;4748;-82
2022/11/25 13:04:38;;;;;;;;;;;;;;;5.29;76.99;100975.34;4863335;29;4542;-82
2022/11/25 13:07:05;;;;;;;;;;;;;;;5.32;76.68;100969.66;4878329;29;4483;-82